sensor_id;sensor_type;location;lat;lon;timestamp;noise_LAeq;noise_LA_min;noise_LA_max;noise_LA01;noise_LA95
38366;Laerm;943;51.568;6.998;2024-03-23T00:54:44;40.87;36.05;53.95;;
38366;Laerm;943;51.568;6.998;2024-03-23T00:57:12;39.79;36.16;52.90;;
38366;Laerm;943;51.568;6.998;2024-03-23T00:59:40;41.94;36.70;56.60;;
38366;Laerm;943;51.568;6.998;2024-03-23T01:02:07;41.14;38.06;55.91;;
38366;Laerm;943;51.568;6.998;2024-03-23T01:04:34;40.20;35.24;48.47;;
38366;Laerm;943;51.568;6.998;2024-03-23T01:07:03;38.78;35.57;52.65;;
38366;Laerm;943;51.568;6.998;2024-03-23T01:09:30;40.24;35.96;52.73;;
38366;Laerm;943;51.568;6.998;2024-03-23T01:11:58;41.54;36.54;65.05;;
38366;Laerm;943;51.568;6.998;2024-03-23T01:14:26;42.00;37.23;52.97;;
38366;Laerm;943;51.568;6.998;2024-03-23T01:16:52;41.86;37.43;56.39;;
38366;Laerm;943;51.568;6.998;2024-03-23T01:19:19;41.14;37.16;51.52;;
38366;Laerm;943;51.568;6.998;2024-03-23T01:21:49;40.91;36.86;55.52;;
38366;Laerm;943;51.568;6.998;2024-03-23T01:24:16;41.12;36.81;55.24;;
38366;Laerm;943;51.568;6.998;2024-03-23T01:26:43;42.15;38.18;51.08;;
38366;Laerm;943;51.568;6.998;2024-03-23T01:29:11;41.22;36.96;60.84;;
38366;Laerm;943;51.568;6.998;2024-03-23T01:31:38;42.07;37.71;61.57;;
38366;Laerm;943;51.568;6.998;2024-03-23T01:34:06;41.01;37.57;56.00;;
38366;Laerm;943;51.568;6.998;2024-03-23T01:36:34;39.94;34.66;58.46;;
38366;Laerm;943;51.568;6.998;2024-03-23T01:39:01;36.93;32.82;50.68;;
38366;Laerm;943;51.568;6.998;2024-03-23T01:41:29;38.34;34.64;46.92;;
38366;Laerm;943;51.568;6.998;2024-03-23T01:43:57;38.35;34.73;48.24;;
38366;Laerm;943;51.568;6.998;2024-03-23T01:46:25;38.55;35.35;45.89;;
38366;Laerm;943;51.568;6.998;2024-03-23T01:48:53;38.99;34.44;49.96;;
38366;Laerm;943;51.568;6.998;2024-03-23T01:51:22;39.60;34.64;50.99;;
38366;Laerm;943;51.568;6.998;2024-03-23T01:53:52;38.14;33.36;50.21;;
38366;Laerm;943;51.568;6.998;2024-03-23T01:56:21;38.95;33.65;54.34;;
38366;Laerm;943;51.568;6.998;2024-03-23T01:58:50;37.11;32.61;48.75;;
38366;Laerm;943;51.568;6.998;2024-03-23T02:01:19;37.89;32.88;47.16;;
38366;Laerm;943;51.568;6.998;2024-03-23T02:03:47;37.68;33.95;45.75;;
38366;Laerm;943;51.568;6.998;2024-03-23T02:06:15;37.68;34.59;56.78;;
38366;Laerm;943;51.568;6.998;2024-03-23T02:08:43;36.09;33.17;44.99;;
38366;Laerm;943;51.568;6.998;2024-03-23T02:11:10;37.18;33.67;44.44;;
38366;Laerm;943;51.568;6.998;2024-03-23T02:13:38;39.18;33.52;51.09;;
38366;Laerm;943;51.568;6.998;2024-03-23T02:16:06;37.79;34.26;44.40;;
38366;Laerm;943;51.568;6.998;2024-03-23T02:18:34;38.53;33.99;52.90;;
38366;Laerm;943;51.568;6.998;2024-03-23T02:21:02;40.32;34.58;56.41;;
38366;Laerm;943;51.568;6.998;2024-03-23T02:23:29;37.19;33.10;43.39;;
38366;Laerm;943;51.568;6.998;2024-03-23T02:25:57;38.89;34.06;47.57;;
38366;Laerm;943;51.568;6.998;2024-03-23T02:28:24;37.01;33.60;42.37;;
38366;Laerm;943;51.568;6.998;2024-03-23T02:30:53;40.73;36.42;46.68;;
38366;Laerm;943;51.568;6.998;2024-03-23T02:33:20;39.54;35.08;44.87;;
38366;Laerm;943;51.568;6.998;2024-03-23T02:35:49;39.49;35.59;47.50;;
38366;Laerm;943;51.568;6.998;2024-03-23T02:38:16;40.14;34.57;45.58;;
38366;Laerm;943;51.568;6.998;2024-03-23T02:40:44;40.24;36.21;45.63;;
38366;Laerm;943;51.568;6.998;2024-03-23T02:43:12;41.80;36.16;51.18;;
38366;Laerm;943;51.568;6.998;2024-03-23T02:45:39;40.85;36.94;48.76;;
38366;Laerm;943;51.568;6.998;2024-03-23T02:48:06;42.29;36.06;64.51;;
38366;Laerm;943;51.568;6.998;2024-03-23T02:50:34;39.52;35.86;46.16;;
38366;Laerm;943;51.568;6.998;2024-03-23T02:53:02;42.06;37.06;49.18;;
38366;Laerm;943;51.568;6.998;2024-03-23T02:55:29;39.70;35.92;45.95;;
38366;Laerm;943;51.568;6.998;2024-03-23T02:58:03;39.34;36.59;48.49;;
38366;Laerm;943;51.568;6.998;2024-03-23T03:00:31;39.67;35.50;45.82;;
38366;Laerm;943;51.568;6.998;2024-03-23T03:02:59;41.80;38.05;46.08;;
38366;Laerm;943;51.568;6.998;2024-03-23T03:05:27;40.82;35.79;46.91;;
38366;Laerm;943;51.568;6.998;2024-03-23T03:07:55;41.80;37.92;50.70;;
38366;Laerm;943;51.568;6.998;2024-03-23T03:10:23;40.74;37.02;48.52;;
38366;Laerm;943;51.568;6.998;2024-03-23T03:12:50;41.02;37.41;47.99;;
38366;Laerm;943;51.568;6.998;2024-03-23T03:15:18;39.34;36.24;53.36;;
38366;Laerm;943;51.568;6.998;2024-03-23T03:17:45;40.07;35.98;46.66;;
38366;Laerm;943;51.568;6.998;2024-03-23T03:20:18;39.18;35.90;46.74;;
38366;Laerm;943;51.568;6.998;2024-03-23T03:22:46;39.27;35.58;50.21;;
38366;Laerm;943;51.568;6.998;2024-03-23T03:25:15;42.35;36.85;61.00;;
38366;Laerm;943;51.568;6.998;2024-03-23T03:27:42;42.48;37.85;48.56;;
38366;Laerm;943;51.568;6.998;2024-03-23T03:30:11;49.54;37.31;73.82;;
38366;Laerm;943;51.568;6.998;2024-03-23T03:32:40;41.20;36.18;60.55;;
38366;Laerm;943;51.568;6.998;2024-03-23T03:35:07;46.85;37.91;62.97;;
38366;Laerm;943;51.568;6.998;2024-03-23T03:37:36;47.43;38.28;58.50;;
38366;Laerm;943;51.568;6.998;2024-03-23T03:40:05;45.83;38.86;59.69;;
38366;Laerm;943;51.568;6.998;2024-03-23T03:42:36;51.86;39.44;66.46;;
38366;Laerm;943;51.568;6.998;2024-03-23T03:45:06;54.43;38.88;69.59;;
38366;Laerm;943;51.568;6.998;2024-03-23T03:47:34;54.44;39.47;69.96;;
38366;Laerm;943;51.568;6.998;2024-03-23T03:50:01;54.86;38.24;71.87;;
38366;Laerm;943;51.568;6.998;2024-03-23T03:52:29;54.72;38.73;70.57;;
38366;Laerm;943;51.568;6.998;2024-03-23T03:55:04;55.18;38.72;71.63;;
38366;Laerm;943;51.568;6.998;2024-03-23T03:57:38;54.95;38.89;69.71;;
38366;Laerm;943;51.568;6.998;2024-03-23T04:00:11;54.63;38.42;71.00;;
38366;Laerm;943;51.568;6.998;2024-03-23T04:02:39;55.16;40.57;68.42;;
38366;Laerm;943;51.568;6.998;2024-03-23T04:05:08;54.19;39.42;68.27;;
38366;Laerm;943;51.568;6.998;2024-03-23T04:07:35;54.38;40.03;68.69;;
38366;Laerm;943;51.568;6.998;2024-03-23T04:10:08;56.56;39.53;70.88;;
38366;Laerm;943;51.568;6.998;2024-03-23T04:12:35;55.77;39.96;72.24;;
38366;Laerm;943;51.568;6.998;2024-03-23T04:15:05;55.54;39.33;68.81;;
38366;Laerm;943;51.568;6.998;2024-03-23T04:17:38;55.88;40.98;69.99;;
38366;Laerm;943;51.568;6.998;2024-03-23T04:20:16;58.54;40.02;74.64;;
38366;Laerm;943;51.568;6.998;2024-03-23T04:22:45;54.43;39.65;68.30;;
38366;Laerm;943;51.568;6.998;2024-03-23T04:25:13;54.07;39.72;69.17;;
38366;Laerm;943;51.568;6.998;2024-03-23T04:27:43;53.97;40.93;66.69;;
38366;Laerm;943;51.568;6.998;2024-03-23T04:30:12;54.78;40.26;70.50;;
38366;Laerm;943;51.568;6.998;2024-03-23T04:32:47;52.67;41.41;64.22;;
38366;Laerm;943;51.568;6.998;2024-03-23T04:35:16;56.05;41.85;73.07;;
38366;Laerm;943;51.568;6.998;2024-03-23T04:37:43;58.56;41.81;74.68;;
38366;Laerm;943;51.568;6.998;2024-03-23T04:40:12;57.57;41.20;74.73;;
38366;Laerm;943;51.568;6.998;2024-03-23T04:42:40;58.02;39.44;73.63;;
38366;Laerm;943;51.568;6.998;2024-03-23T04:45:08;55.14;40.57;70.81;;
38366;Laerm;943;51.568;6.998;2024-03-23T04:47:38;57.67;41.66;77.09;;
38366;Laerm;943;51.568;6.998;2024-03-23T04:50:07;55.21;41.97;72.28;;
38366;Laerm;943;51.568;6.998;2024-03-23T04:52:35;51.59;42.60;65.75;;
38366;Laerm;943;51.568;6.998;2024-03-23T04:55:04;52.26;41.77;65.68;;
38366;Laerm;943;51.568;6.998;2024-03-23T04:57:32;59.85;41.74;75.75;;
38366;Laerm;943;51.568;6.998;2024-03-23T05:00:16;57.96;40.28;76.20;;
38366;Laerm;943;51.568;6.998;2024-03-23T05:02:46;51.53;41.76;64.28;;
38366;Laerm;943;51.568;6.998;2024-03-23T05:05:14;52.97;41.98;68.40;;
38366;Laerm;943;51.568;6.998;2024-03-23T05:08:18;51.27;41.02;62.63;;
38366;Laerm;943;51.568;6.998;2024-03-23T05:10:46;54.39;41.73;70.16;;
38366;Laerm;943;51.568;6.998;2024-03-23T05:13:14;55.06;41.23;67.85;;
38366;Laerm;943;51.568;6.998;2024-03-23T05:15:42;51.93;41.63;65.98;;
38366;Laerm;943;51.568;6.998;2024-03-23T05:18:10;51.66;42.27;65.31;;
38366;Laerm;943;51.568;6.998;2024-03-23T05:20:39;50.68;42.35;66.52;;
38366;Laerm;943;51.568;6.998;2024-03-23T05:23:07;47.70;42.05;58.34;;
38366;Laerm;943;51.568;6.998;2024-03-23T05:25:35;49.91;43.46;62.97;;
38366;Laerm;943;51.568;6.998;2024-03-23T05:28:03;48.46;41.71;62.68;;
38366;Laerm;943;51.568;6.998;2024-03-23T05:30:30;47.83;41.73;56.20;;
38366;Laerm;943;51.568;6.998;2024-03-23T05:32:58;54.28;41.45;77.23;;
38366;Laerm;943;51.568;6.998;2024-03-23T05:35:26;49.70;42.35;69.60;;
38366;Laerm;943;51.568;6.998;2024-03-23T05:37:53;45.54;40.23;52.71;;
38366;Laerm;943;51.568;6.998;2024-03-23T05:40:20;48.05;40.54;62.44;;
38366;Laerm;943;51.568;6.998;2024-03-23T05:42:47;49.65;41.42;61.79;;
38366;Laerm;943;51.568;6.998;2024-03-23T05:45:20;48.95;41.64;61.50;;
38366;Laerm;943;51.568;6.998;2024-03-23T05:47:47;47.51;42.29;61.97;;
38366;Laerm;943;51.568;6.998;2024-03-23T05:50:15;49.56;41.33;62.56;;
38366;Laerm;943;51.568;6.998;2024-03-23T05:52:45;46.45;41.45;61.54;;
38366;Laerm;943;51.568;6.998;2024-03-23T05:55:12;45.79;40.96;58.74;;
38366;Laerm;943;51.568;6.998;2024-03-23T05:57:41;48.23;40.68;60.19;;
38366;Laerm;943;51.568;6.998;2024-03-23T06:00:17;49.20;40.94;62.80;;
38366;Laerm;943;51.568;6.998;2024-03-23T06:02:47;47.48;42.05;59.79;;
38366;Laerm;943;51.568;6.998;2024-03-23T06:05:15;47.25;41.46;59.69;;
38366;Laerm;943;51.568;6.998;2024-03-23T06:07:42;46.03;41.43;62.28;;
38366;Laerm;943;51.568;6.998;2024-03-23T06:10:10;47.37;41.36;63.40;;
38366;Laerm;943;51.568;6.998;2024-03-23T06:12:38;46.57;41.99;61.90;;
38366;Laerm;943;51.568;6.998;2024-03-23T06:15:10;47.61;40.88;64.35;;
38366;Laerm;943;51.568;6.998;2024-03-23T06:17:38;46.75;41.07;59.62;;
38366;Laerm;943;51.568;6.998;2024-03-23T06:20:11;46.47;42.24;60.57;;
38366;Laerm;943;51.568;6.998;2024-03-23T06:22:39;46.64;42.37;59.56;;
38366;Laerm;943;51.568;6.998;2024-03-23T06:25:07;47.40;42.17;59.15;;
38366;Laerm;943;51.568;6.998;2024-03-23T06:27:35;48.41;41.97;59.88;;
38366;Laerm;943;51.568;6.998;2024-03-23T06:30:03;49.69;43.04;60.03;;
38366;Laerm;943;51.568;6.998;2024-03-23T06:32:30;60.19;45.46;71.58;;
38366;Laerm;943;51.568;6.998;2024-03-23T06:34:57;68.11;44.26;88.73;;
38366;Laerm;943;51.568;6.998;2024-03-23T06:37:25;58.57;41.20;74.52;;
38366;Laerm;943;51.568;6.998;2024-03-23T06:39:53;46.11;41.56;57.29;;
38366;Laerm;943;51.568;6.998;2024-03-23T06:42:20;46.88;41.56;57.02;;
38366;Laerm;943;51.568;6.998;2024-03-23T06:44:47;48.81;42.39;58.71;;
38366;Laerm;943;51.568;6.998;2024-03-23T06:47:14;48.24;43.49;60.26;;
38366;Laerm;943;51.568;6.998;2024-03-23T06:49:42;48.46;43.13;60.95;;
38366;Laerm;943;51.568;6.998;2024-03-23T06:52:09;52.02;41.66;71.10;;
38366;Laerm;943;51.568;6.998;2024-03-23T06:54:36;52.49;41.99;72.01;;
38366;Laerm;943;51.568;6.998;2024-03-23T06:57:04;47.51;41.42;58.57;;
38366;Laerm;943;51.568;6.998;2024-03-23T06:59:31;47.45;41.90;61.07;;
38366;Laerm;943;51.568;6.998;2024-03-23T07:01:59;47.95;42.19;60.85;;
38366;Laerm;943;51.568;6.998;2024-03-23T07:04:26;48.36;42.11;60.05;;
38366;Laerm;943;51.568;6.998;2024-03-23T07:06:53;50.93;42.86;63.59;;
38366;Laerm;943;51.568;6.998;2024-03-23T07:09:28;51.14;44.10;63.17;;
38366;Laerm;943;51.568;6.998;2024-03-23T07:11:57;47.02;42.79;61.05;;
38366;Laerm;943;51.568;6.998;2024-03-23T07:14:25;47.09;43.09;64.56;;
38366;Laerm;943;51.568;6.998;2024-03-23T07:16:52;47.41;41.76;61.21;;
38366;Laerm;943;51.568;6.998;2024-03-23T07:19:20;48.24;42.75;60.11;;
38366;Laerm;943;51.568;6.998;2024-03-23T07:21:48;47.05;42.41;61.51;;
38366;Laerm;943;51.568;6.998;2024-03-23T07:24:16;47.96;43.27;59.22;;
38366;Laerm;943;51.568;6.998;2024-03-23T07:26:44;49.85;42.84;63.66;;
38366;Laerm;943;51.568;6.998;2024-03-23T07:29:12;50.54;43.64;64.77;;
38366;Laerm;943;51.568;6.998;2024-03-23T07:31:40;57.32;43.52;74.26;;
38366;Laerm;943;51.568;6.998;2024-03-23T07:34:08;50.15;42.93;65.42;;
38366;Laerm;943;51.568;6.998;2024-03-23T07:36:35;48.56;42.54;65.42;;
38366;Laerm;943;51.568;6.998;2024-03-23T07:39:05;50.39;42.85;65.05;;
38366;Laerm;943;51.568;6.998;2024-03-23T07:41:33;48.10;42.11;59.88;;
38366;Laerm;943;51.568;6.998;2024-03-23T07:44:01;49.59;42.50;64.68;;
38366;Laerm;943;51.568;6.998;2024-03-23T07:46:31;49.33;43.68;64.35;;
38366;Laerm;943;51.568;6.998;2024-03-23T07:48:59;50.58;44.72;62.82;;
38366;Laerm;943;51.568;6.998;2024-03-23T07:51:28;50.71;43.08;69.99;;
38366;Laerm;943;51.568;6.998;2024-03-23T07:53:56;52.04;42.44;71.12;;
38366;Laerm;943;51.568;6.998;2024-03-23T07:56:24;50.96;42.31;72.30;;
38366;Laerm;943;51.568;6.998;2024-03-23T07:58:53;51.71;42.46;70.13;;
38366;Laerm;943;51.568;6.998;2024-03-23T08:01:20;50.56;41.75;67.16;;
38366;Laerm;943;51.568;6.998;2024-03-23T08:03:49;46.69;41.66;61.04;;
38366;Laerm;943;51.568;6.998;2024-03-23T08:06:25;54.97;43.35;69.52;;
38366;Laerm;943;51.568;6.998;2024-03-23T08:09:00;46.36;41.92;60.17;;
38366;Laerm;943;51.568;6.998;2024-03-23T08:11:31;49.89;43.00;64.54;;
38366;Laerm;943;51.568;6.998;2024-03-23T08:14:01;47.04;42.72;56.46;;
38366;Laerm;943;51.568;6.998;2024-03-23T08:16:29;54.46;43.33;70.37;;
38366;Laerm;943;51.568;6.998;2024-03-23T08:18:58;48.15;42.77;66.78;;
38366;Laerm;943;51.568;6.998;2024-03-23T08:21:27;54.01;43.49;69.58;;
38366;Laerm;943;51.568;6.998;2024-03-23T08:23:55;49.77;41.94;70.04;;
38366;Laerm;943;51.568;6.998;2024-03-23T08:26:23;49.79;43.40;68.93;;
38366;Laerm;943;51.568;6.998;2024-03-23T08:28:51;57.47;44.49;74.41;;
38366;Laerm;943;51.568;6.998;2024-03-23T08:31:18;58.43;42.97;79.44;;
38366;Laerm;943;51.568;6.998;2024-03-23T08:33:47;53.14;43.41;71.31;;
38366;Laerm;943;51.568;6.998;2024-03-23T08:36:15;53.83;44.42;71.20;;
38366;Laerm;943;51.568;6.998;2024-03-23T08:38:55;53.80;44.07;72.48;;
38366;Laerm;943;51.568;6.998;2024-03-23T08:41:22;50.39;43.14;63.44;;
38366;Laerm;943;51.568;6.998;2024-03-23T08:43:52;59.92;44.48;83.08;;
38366;Laerm;943;51.568;6.998;2024-03-23T08:46:20;54.20;43.92;72.07;;
38366;Laerm;943;51.568;6.998;2024-03-23T08:48:52;53.87;43.72;69.65;;
38366;Laerm;943;51.568;6.998;2024-03-23T08:51:20;52.63;45.49;68.74;;
38366;Laerm;943;51.568;6.998;2024-03-23T08:53:51;57.48;43.56;74.53;;
38366;Laerm;943;51.568;6.998;2024-03-23T08:56:21;59.34;44.47;77.61;;
38366;Laerm;943;51.568;6.998;2024-03-23T08:58:48;55.51;43.94;77.12;;
38366;Laerm;943;51.568;6.998;2024-03-23T09:01:16;55.23;43.13;71.48;;
38366;Laerm;943;51.568;6.998;2024-03-23T09:03:44;64.07;44.89;80.92;;
38366;Laerm;943;51.568;6.998;2024-03-23T09:06:15;61.07;44.02;79.15;;
38366;Laerm;943;51.568;6.998;2024-03-23T09:08:44;52.29;45.37;67.63;;
38366;Laerm;943;51.568;6.998;2024-03-23T09:11:13;54.77;44.57;74.66;;
38366;Laerm;943;51.568;6.998;2024-03-23T09:13:42;64.93;47.10;82.87;;
38366;Laerm;943;51.568;6.998;2024-03-23T09:16:10;50.87;44.68;62.13;;
38366;Laerm;943;51.568;6.998;2024-03-23T09:18:38;51.76;44.48;70.35;;
38366;Laerm;943;51.568;6.998;2024-03-23T09:21:15;57.74;45.62;79.21;;
38366;Laerm;943;51.568;6.998;2024-03-23T09:23:45;65.15;45.80;84.68;;
38366;Laerm;943;51.568;6.998;2024-03-23T09:26:13;60.87;45.67;75.93;;
38366;Laerm;943;51.568;6.998;2024-03-23T09:28:41;62.99;45.68;83.39;;
38366;Laerm;943;51.568;6.998;2024-03-23T09:31:15;61.54;45.08;81.76;;
38366;Laerm;943;51.568;6.998;2024-03-23T09:33:43;59.16;46.11;78.82;;
38366;Laerm;943;51.568;6.998;2024-03-23T09:36:10;63.94;44.27;80.60;;
38366;Laerm;943;51.568;6.998;2024-03-23T09:38:38;59.17;44.75;74.54;;
38366;Laerm;943;51.568;6.998;2024-03-23T09:41:09;62.47;47.25;78.91;;
38366;Laerm;943;51.568;6.998;2024-03-23T09:43:37;61.95;46.51;80.49;;
38366;Laerm;943;51.568;6.998;2024-03-23T09:46:05;53.70;44.34;72.84;;
38366;Laerm;943;51.568;6.998;2024-03-23T09:48:34;49.75;43.55;67.44;;
38366;Laerm;943;51.568;6.998;2024-03-23T09:51:03;51.45;43.87;71.10;;
38366;Laerm;943;51.568;6.998;2024-03-23T09:53:32;64.79;44.32;79.78;;
38366;Laerm;943;51.568;6.998;2024-03-23T09:55:59;59.37;46.20;77.81;;
38366;Laerm;943;51.568;6.998;2024-03-23T09:58:27;57.40;45.23;72.08;;
38366;Laerm;943;51.568;6.998;2024-03-23T10:00:54;56.15;44.94;73.08;;
38366;Laerm;943;51.568;6.998;2024-03-23T10:03:27;56.34;44.48;70.95;;
38366;Laerm;943;51.568;6.998;2024-03-23T10:06:04;53.63;45.39;71.16;;
38366;Laerm;943;51.568;6.998;2024-03-23T10:08:36;61.74;45.34;78.70;;
38366;Laerm;943;51.568;6.998;2024-03-23T10:11:21;51.03;42.79;69.82;;
38366;Laerm;943;51.568;6.998;2024-03-23T10:13:49;54.06;44.69;73.00;;
38366;Laerm;943;51.568;6.998;2024-03-23T10:16:26;60.21;45.14;80.21;;
38366;Laerm;943;51.568;6.998;2024-03-23T10:18:54;55.59;44.65;72.41;;
38366;Laerm;943;51.568;6.998;2024-03-23T10:21:21;63.83;44.95;80.62;;
38366;Laerm;943;51.568;6.998;2024-03-23T10:23:51;60.84;46.47;80.28;;
38366;Laerm;943;51.568;6.998;2024-03-23T10:26:26;56.36;45.54;75.48;;
38366;Laerm;943;51.568;6.998;2024-03-23T10:29:17;63.79;44.38;80.87;;
38366;Laerm;943;51.568;6.998;2024-03-23T10:31:47;57.04;43.44;76.99;;
38366;Laerm;943;51.568;6.998;2024-03-23T10:34:15;56.13;44.37;82.12;;
38366;Laerm;943;51.568;6.998;2024-03-23T10:36:45;60.74;44.83;86.03;;
38366;Laerm;943;51.568;6.998;2024-03-23T10:39:17;55.65;44.84;72.56;;
38366;Laerm;943;51.568;6.998;2024-03-23T10:41:48;55.51;44.05;78.23;;
38366;Laerm;943;51.568;6.998;2024-03-23T10:44:20;59.95;46.08;76.75;;
38366;Laerm;943;51.568;6.998;2024-03-23T10:46:48;51.12;45.49;68.05;;
38366;Laerm;943;51.568;6.998;2024-03-23T10:49:15;56.71;47.14;74.35;;
38366;Laerm;943;51.568;6.998;2024-03-23T10:51:42;57.18;48.68;74.58;;
38366;Laerm;943;51.568;6.998;2024-03-23T10:54:14;61.46;51.19;83.03;;
38366;Laerm;943;51.568;6.998;2024-03-23T10:56:42;57.33;49.15;70.75;;
38366;Laerm;943;51.568;6.998;2024-03-23T10:59:10;60.82;48.70;81.05;;
38366;Laerm;943;51.568;6.998;2024-03-23T11:02:02;64.20;47.61;81.90;;
38366;Laerm;943;51.568;6.998;2024-03-23T11:04:43;62.26;53.01;78.95;;
38366;Laerm;943;51.568;6.998;2024-03-23T11:07:50;62.99;50.65;78.82;;
38366;Laerm;943;51.568;6.998;2024-03-23T11:10:34;56.32;47.59;71.89;;
38366;Laerm;943;51.568;6.998;2024-03-23T11:13:23;52.84;46.17;65.38;;
38366;Laerm;943;51.568;6.998;2024-03-23T11:15:50;55.38;45.31;71.42;;
38366;Laerm;943;51.568;6.998;2024-03-23T11:18:22;48.80;45.18;67.34;;
38366;Laerm;943;51.568;6.998;2024-03-23T11:20:49;52.46;44.40;65.07;;
38366;Laerm;943;51.568;6.998;2024-03-23T11:23:29;47.63;42.92;64.77;;
38366;Laerm;943;51.568;6.998;2024-03-23T11:25:56;49.02;42.77;61.67;;
38366;Laerm;943;51.568;6.998;2024-03-23T11:28:24;49.84;43.60;64.21;;
38366;Laerm;943;51.568;6.998;2024-03-23T11:30:51;47.42;42.78;71.26;;
38366;Laerm;943;51.568;6.998;2024-03-23T11:33:18;58.43;42.29;80.20;;
38366;Laerm;943;51.568;6.998;2024-03-23T11:35:46;54.95;43.48;77.62;;
38366;Laerm;943;51.568;6.998;2024-03-23T11:38:19;49.82;43.64;66.78;;
38366;Laerm;943;51.568;6.998;2024-03-23T11:40:49;59.24;43.64;76.44;;
38366;Laerm;943;51.568;6.998;2024-03-23T11:43:23;55.71;42.83;75.06;;
38366;Laerm;943;51.568;6.998;2024-03-23T11:46:03;61.11;46.05;76.90;;
38366;Laerm;943;51.568;6.998;2024-03-23T11:48:30;55.12;44.37;75.46;;
38366;Laerm;943;51.568;6.998;2024-03-23T11:50:58;54.48;45.31;69.72;;
38366;Laerm;943;51.568;6.998;2024-03-23T11:53:30;63.58;46.39;79.06;;
38366;Laerm;943;51.568;6.998;2024-03-23T11:56:01;65.12;46.42;87.15;;
38366;Laerm;943;51.568;6.998;2024-03-23T11:58:30;65.47;46.66;85.18;;
38366;Laerm;943;51.568;6.998;2024-03-23T12:01:10;54.61;45.54;75.66;;
38366;Laerm;943;51.568;6.998;2024-03-23T12:03:37;60.12;46.32;85.27;;
38366;Laerm;943;51.568;6.998;2024-03-23T12:06:07;56.33;44.91;73.78;;
38366;Laerm;943;51.568;6.998;2024-03-23T12:08:38;51.91;45.45;70.60;;
38366;Laerm;943;51.568;6.998;2024-03-23T12:11:17;60.98;44.84;80.14;;
38366;Laerm;943;51.568;6.998;2024-03-23T12:13:51;62.39;46.88;78.82;;
38366;Laerm;943;51.568;6.998;2024-03-23T12:16:21;62.56;47.26;79.32;;
38366;Laerm;943;51.568;6.998;2024-03-23T12:19:06;58.89;45.65;78.38;;
38366;Laerm;943;51.568;6.998;2024-03-23T12:21:34;52.68;46.14;69.67;;
38366;Laerm;943;51.568;6.998;2024-03-23T12:24:02;54.80;44.68;72.94;;
38366;Laerm;943;51.568;6.998;2024-03-23T12:26:29;55.86;45.30;77.86;;
38366;Laerm;943;51.568;6.998;2024-03-23T12:28:56;51.42;44.54;69.29;;
38366;Laerm;943;51.568;6.998;2024-03-23T12:31:24;62.93;44.41;79.82;;
38366;Laerm;943;51.568;6.998;2024-03-23T12:33:52;66.30;45.11;91.46;;
38366;Laerm;943;51.568;6.998;2024-03-23T12:36:21;66.49;46.08;83.43;;
38366;Laerm;943;51.568;6.998;2024-03-23T12:38:49;61.63;47.13;80.61;;
38366;Laerm;943;51.568;6.998;2024-03-23T12:41:20;66.07;47.60;85.36;;
38366;Laerm;943;51.568;6.998;2024-03-23T12:43:49;61.91;46.17;81.92;;
38366;Laerm;943;51.568;6.998;2024-03-23T12:46:16;56.48;46.06;74.50;;
38366;Laerm;943;51.568;6.998;2024-03-23T12:48:45;65.74;49.12;84.62;;
38366;Laerm;943;51.568;6.998;2024-03-23T12:51:13;70.65;49.87;84.85;;
38366;Laerm;943;51.568;6.998;2024-03-23T12:53:41;65.23;48.28;85.16;;
38366;Laerm;943;51.568;6.998;2024-03-23T12:56:12;63.05;46.95;82.36;;
38366;Laerm;943;51.568;6.998;2024-03-23T12:58:40;62.11;45.57;80.34;;
38366;Laerm;943;51.568;6.998;2024-03-23T13:01:10;66.05;47.01;85.65;;
38366;Laerm;943;51.568;6.998;2024-03-23T13:03:37;62.02;47.30;86.03;;
38366;Laerm;943;51.568;6.998;2024-03-23T13:06:09;60.54;48.60;79.37;;
38366;Laerm;943;51.568;6.998;2024-03-23T13:08:36;66.80;50.98;87.14;;
38366;Laerm;943;51.568;6.998;2024-03-23T13:11:04;60.60;46.91;79.76;;
38366;Laerm;943;51.568;6.998;2024-03-23T13:13:34;58.68;47.66;73.76;;
38366;Laerm;943;51.568;6.998;2024-03-23T13:16:03;56.12;45.02;75.17;;
38366;Laerm;943;51.568;6.998;2024-03-23T13:18:32;55.70;46.72;72.20;;
38366;Laerm;943;51.568;6.998;2024-03-23T13:20:59;52.62;45.56;67.72;;
38366;Laerm;943;51.568;6.998;2024-03-23T13:23:27;56.01;45.22;73.26;;
38366;Laerm;943;51.568;6.998;2024-03-23T13:25:56;58.79;45.58;78.26;;
38366;Laerm;943;51.568;6.998;2024-03-23T13:28:23;49.50;44.55;65.90;;
38366;Laerm;943;51.568;6.998;2024-03-23T13:30:57;48.46;44.01;60.45;;
38366;Laerm;943;51.568;6.998;2024-03-23T13:33:25;52.59;43.72;74.21;;
38366;Laerm;943;51.568;6.998;2024-03-23T13:35:54;51.87;44.94;67.09;;
38366;Laerm;943;51.568;6.998;2024-03-23T13:38:24;51.99;44.53;70.12;;
38366;Laerm;943;51.568;6.998;2024-03-23T13:41:00;54.18;44.31;75.31;;
38366;Laerm;943;51.568;6.998;2024-03-23T13:43:28;57.12;45.04;72.40;;
38366;Laerm;943;51.568;6.998;2024-03-23T13:46:00;48.51;44.42;60.86;;
38366;Laerm;943;51.568;6.998;2024-03-23T13:48:29;46.62;43.39;57.70;;
38366;Laerm;943;51.568;6.998;2024-03-23T13:51:04;46.76;43.63;56.55;;
38366;Laerm;943;51.568;6.998;2024-03-23T13:53:33;47.65;41.97;62.01;;
38366;Laerm;943;51.568;6.998;2024-03-23T13:56:01;55.10;45.44;71.39;;
38366;Laerm;943;51.568;6.998;2024-03-23T13:58:28;54.97;43.02;79.44;;
38366;Laerm;943;51.568;6.998;2024-03-23T14:00:58;50.20;44.32;64.75;;
38366;Laerm;943;51.568;6.998;2024-03-23T14:03:27;57.71;45.40;76.09;;
38366;Laerm;943;51.568;6.998;2024-03-23T14:06:04;51.97;43.74;68.45;;
38366;Laerm;943;51.568;6.998;2024-03-23T14:08:40;57.44;43.89;75.64;;
38366;Laerm;943;51.568;6.998;2024-03-23T14:11:10;51.66;44.64;65.14;;
38366;Laerm;943;51.568;6.998;2024-03-23T14:13:39;51.53;42.89;68.02;;
38366;Laerm;943;51.568;6.998;2024-03-23T14:16:08;51.51;43.85;68.91;;
38366;Laerm;943;51.568;6.998;2024-03-23T14:18:35;58.58;45.64;79.44;;
38366;Laerm;943;51.568;6.998;2024-03-23T14:21:04;53.78;44.76;68.10;;
38366;Laerm;943;51.568;6.998;2024-03-23T14:23:34;61.64;45.36;88.31;;
38366;Laerm;943;51.568;6.998;2024-03-23T14:26:01;61.50;45.15;78.53;;
38366;Laerm;943;51.568;6.998;2024-03-23T14:28:28;71.80;46.22;91.30;;
38366;Laerm;943;51.568;6.998;2024-03-23T14:30:57;62.00;46.96;81.68;;
38366;Laerm;943;51.568;6.998;2024-03-23T14:33:25;55.63;45.49;72.88;;
38366;Laerm;943;51.568;6.998;2024-03-23T14:35:57;50.73;44.21;67.64;;
38366;Laerm;943;51.568;6.998;2024-03-23T14:38:24;53.16;45.46;71.99;;
38366;Laerm;943;51.568;6.998;2024-03-23T14:41:04;65.99;47.19;85.40;;
38366;Laerm;943;51.568;6.998;2024-03-23T14:43:32;57.18;45.37;75.98;;
38366;Laerm;943;51.568;6.998;2024-03-23T14:46:13;58.41;44.02;85.18;;
38366;Laerm;943;51.568;6.998;2024-03-23T14:48:44;48.37;44.14;65.61;;
38366;Laerm;943;51.568;6.998;2024-03-23T14:51:14;57.51;45.20;77.02;;
38366;Laerm;943;51.568;6.998;2024-03-23T14:53:45;59.97;46.65;76.95;;
38366;Laerm;943;51.568;6.998;2024-03-23T14:56:17;49.97;43.52;63.87;;
38366;Laerm;943;51.568;6.998;2024-03-23T14:58:52;57.61;43.25;81.46;;
38366;Laerm;943;51.568;6.998;2024-03-23T15:01:22;62.20;45.19;80.05;;
38366;Laerm;943;51.568;6.998;2024-03-23T15:03:49;62.25;46.37;79.79;;
38366;Laerm;943;51.568;6.998;2024-03-23T15:06:20;58.40;45.11;74.74;;
38366;Laerm;943;51.568;6.998;2024-03-23T15:08:48;54.76;44.55;73.46;;
38366;Laerm;943;51.568;6.998;2024-03-23T15:11:20;57.07;45.90;73.52;;
38366;Laerm;943;51.568;6.998;2024-03-23T15:13:51;60.33;46.83;78.17;;
38366;Laerm;943;51.568;6.998;2024-03-23T15:16:21;56.09;44.84;73.04;;